Time;durP1;ratioP1;P1;durP2;ratioP2;P2;SDS_P1;SDS_P2;PMS_P1;PMS_P2;Temp;Humidity;BMP_temperature;BMP_pressure;BME280_temperature;BME280_humidity;BME280_pressure;Samples;Min_cycle;Max_cycle;Signal;HPM_P1;HPM_P2
2022/07/04 00:01:01;;;;;;;4.05;2.17;;;14.50;99.90;;;;;;4977626;28;20096;-71
2022/07/04 00:03:27;;;;;;;4.32;2.20;;;14.50;99.90;;;;;;4992617;28;20510;-71
2022/07/04 00:05:52;;;;;;;5.22;2.88;;;14.50;99.90;;;;;;4960563;28;20046;-71
2022/07/04 00:08:18;;;;;;;4.07;2.33;;;14.40;99.90;;;;;;4976234;28;20502;-71
2022/07/04 00:10:43;;;;;;;3.47;2.30;;;14.50;99.90;;;;;;4976522;28;20050;-71
2022/07/04 00:13:09;;;;;;;6.45;3.42;;;14.50;99.90;;;;;;4976578;28;20065;-71
2022/07/04 00:15:34;;;;;;;4.45;3.00;;;14.40;99.90;;;;;;4976291;28;20499;-71
2022/07/04 00:18:00;;;;;;;4.00;2.50;;;14.40;99.90;;;;;;4976461;28;20042;-71
2022/07/04 00:20:25;;;;;;;3.13;2.83;;;14.40;99.90;;;;;;4976132;28;20578;-71
2022/07/04 00:22:51;;;;;;;2.15;1.95;;;14.30;99.90;;;;;;4976335;28;20046;-71
2022/07/04 00:25:17;;;;;;;5.72;3.00;;;14.30;99.90;;;;;;4993811;28;20125;-71
2022/07/04 00:27:42;;;;;;;6.07;3.15;;;14.30;99.90;;;;;;4976098;28;20046;-71
2022/07/04 00:30:08;;;;;;;6.30;3.80;;;14.30;99.90;;;;;;4976111;28;20078;-71
2022/07/04 00:32:34;;;;;;;7.65;4.05;;;14.30;99.90;;;;;;4976451;28;20050;-71
2022/07/04 00:35:00;;;;;;;4.68;3.78;;;14.30;99.90;;;;;;4959816;28;20554;-71
2022/07/04 00:37:25;;;;;;;6.68;4.03;;;14.40;99.90;;;;;;4976398;28;20050;-71
2022/07/04 00:39:51;;;;;;;6.53;3.40;;;14.40;99.90;;;;;;4976233;28;20554;-72
2022/07/04 00:42:17;;;;;;;8.48;4.10;;;14.40;99.90;;;;;;4993347;28;20050;-72
2022/07/04 00:44:43;;;;;;;7.15;4.07;;;14.40;99.90;;;;;;4993316;28;20047;-72
2022/07/04 00:47:09;;;;;;;6.55;4.50;;;14.40;99.90;;;;;;4959880;28;20057;-71
2022/07/04 00:49:35;;;;;;;6.88;5.00;;;14.40;99.90;;;;;;4976282;28;20137;-71
2022/07/04 00:52:01;;;;;;;6.43;4.40;;;14.40;99.90;;;;;;4976234;28;20038;-71
2022/07/04 00:54:30;;;;;;;5.78;3.03;;;14.40;99.90;;;;;;4979414;28;20462;-71
2022/07/04 00:56:57;;;;;;;4.85;3.38;;;14.40;99.90;;;;;;4979527;28;20045;-71
2022/07/04 00:59:22;;;;;;;4.53;3.22;;;14.30;99.90;;;;;;4979631;28;20045;-71
2022/07/04 01:01:50;;;;;;;8.38;3.88;;;14.30;99.90;;;;;;4979653;28;20038;-71
2022/07/04 01:04:16;;;;;;;7.47;4.85;;;14.30;99.90;;;;;;4979572;28;20046;-71
2022/07/04 01:06:42;;;;;;;5.30;3.75;;;14.20;99.90;;;;;;4979327;28;20573;-71
2022/07/04 01:09:08;;;;;;;5.55;4.18;;;14.20;99.90;;;;;;4979606;28;20399;-71
2022/07/04 01:11:34;;;;;;;4.60;4.10;;;14.20;99.90;;;;;;4979221;28;20495;-71
2022/07/04 01:14:00;;;;;;;4.72;3.33;;;14.20;99.90;;;;;;4979167;28;20411;-71
2022/07/04 01:16:26;;;;;;;6.13;3.42;;;14.10;99.90;;;;;;4979191;28;20054;-71
2022/07/04 01:18:53;;;;;;;7.55;4.28;;;14.10;99.90;;;;;;4995630;28;20054;-71
2022/07/04 01:21:19;;;;;;;4.78;4.15;;;14.10;99.90;;;;;;4995529;28;20042;-71
2022/07/04 01:23:45;;;;;;;7.47;4.15;;;14.10;99.90;;;;;;4995363;28;20038;-71
2022/07/04 01:26:11;;;;;;;8.30;4.13;;;14.10;99.90;;;;;;4978978;28;20045;-71
2022/07/04 01:28:38;;;;;;;6.95;4.30;;;14.10;99.90;;;;;;4979411;28;20042;-71
2022/07/04 01:31:04;;;;;;;3.72;3.30;;;14.00;99.90;;;;;;4995341;28;20096;-71
2022/07/04 01:33:29;;;;;;;5.00;2.90;;;14.00;99.90;;;;;;4978838;28;20042;-71
2022/07/04 01:35:55;;;;;;;4.50;3.30;;;13.90;99.90;;;;;;4978789;28;20061;-71
2022/07/04 01:38:21;;;;;;;5.30;3.28;;;13.90;99.90;;;;;;4962996;28;20038;-71
2022/07/04 01:40:47;;;;;;;5.60;3.28;;;13.90;99.90;;;;;;4978996;28;20135;-71
2022/07/04 01:43:12;;;;;;;5.72;2.80;;;13.90;99.90;;;;;;4978697;28;20038;-71
2022/07/04 01:45:38;;;;;;;4.88;2.83;;;13.90;99.90;;;;;;4978599;28;20042;-71
2022/07/04 01:48:08;;;;;;;3.05;2.67;;;13.80;99.90;;;;;;4978893;28;20081;-71
2022/07/04 01:50:34;;;;;;;3.80;3.40;;;13.80;99.90;;;;;;4994851;28;20491;-71
2022/07/04 01:53:00;;;;;;;5.65;3.88;;;13.70;99.90;;;;;;4978680;28;20041;-71
2022/07/04 01:55:26;;;;;;;4.13;3.55;;;13.70;99.90;;;;;;4978412;28;20538;-71
2022/07/04 01:57:52;;;;;;;3.83;3.17;;;13.70;99.90;;;;;;4978583;28;20038;-71
2022/07/04 02:03:03;;;;;;;3.65;3.33;;;13.70;99.90;;;;;;4978303;28;20077;-71
2022/07/04 02:05:28;;;;;;;14.25;3.00;;;13.70;99.90;;;;;;4978346;28;20077;-71
2022/07/04 02:07:54;;;;;;;3.08;2.78;;;13.60;99.90;;;;;;4978247;28;20046;-71
2022/07/04 02:10:20;;;;;;;3.67;2.63;;;13.60;99.90;;;;;;4978257;28;20049;-71
2022/07/04 02:13:01;;;;;;;3.47;2.95;;;13.50;99.90;;;;;;4978088;28;20042;-71
2022/07/04 02:15:53;;;;;;;4.38;3.25;;;13.50;99.90;;;;;;4978225;28;20050;-71
2022/07/04 02:18:18;;;;;;;3.55;3.00;;;13.50;99.90;;;;;;4975613;28;20565;-71
2022/07/04 02:20:44;;;;;;;3.67;2.45;;;13.40;99.90;;;;;;4978317;28;20042;-71
2022/07/04 02:23:10;;;;;;;4.40;3.45;;;13.50;99.90;;;;;;4995620;28;20455;-71
2022/07/04 02:25:35;;;;;;;4.18;3.60;;;13.50;99.90;;;;;;4977976;28;20069;-71
2022/07/04 02:28:01;;;;;;;5.40;4.30;;;13.50;99.90;;;;;;4978306;28;20038;-71
2022/07/04 02:30:26;;;;;;;6.45;4.63;;;13.50;99.90;;;;;;4977906;28;20503;-71
2022/07/04 02:32:52;;;;;;;6.90;5.10;;;13.50;99.90;;;;;;4978419;28;20090;-71
2022/07/04 02:35:18;;;;;;;7.18;4.90;;;13.50;99.90;;;;;;4977693;28;20050;-71
2022/07/04 02:37:43;;;;;;;5.65;4.65;;;13.50;99.90;;;;;;4977677;28;20042;-71
2022/07/04 02:40:09;;;;;;;7.50;5.00;;;13.50;99.90;;;;;;4962114;28;20038;-71
2022/07/04 02:42:36;;;;;;;6.85;5.30;;;13.50;99.90;;;;;;4993753;28;20487;-71
2022/07/04 02:45:02;;;;;;;7.80;6.13;;;13.60;99.90;;;;;;4977553;28;20495;-71
2022/07/04 02:47:28;;;;;;;7.38;5.47;;;13.60;99.90;;;;;;4993949;28;20042;-71
2022/07/04 02:49:54;;;;;;;6.38;5.63;;;13.60;99.90;;;;;;4977851;28;20038;-71
2022/07/04 02:52:20;;;;;;;5.63;4.68;;;13.60;99.90;;;;;;4977642;28;20100;-71
2022/07/04 02:54:46;;;;;;;4.68;4.15;;;13.60;99.90;;;;;;4962059;28;20601;-72
2022/07/04 02:57:12;;;;;;;5.95;5.07;;;13.50;99.90;;;;;;4977323;28;20073;-72
2022/07/04 02:59:38;;;;;;;6.68;5.80;;;13.50;99.90;;;;;;4993947;28;20559;-72
2022/07/04 03:02:04;;;;;;;5.00;4.25;;;13.50;99.90;;;;;;4977172;28;20122;-71
2022/07/04 03:04:29;;;;;;;4.95;3.90;;;13.50;99.90;;;;;;4977441;28;20499;-71
2022/07/04 03:06:55;;;;;;;5.90;4.70;;;13.50;99.90;;;;;;4977370;28;20057;-71
2022/07/04 03:09:21;;;;;;;9.23;5.50;;;13.50;99.90;;;;;;4977603;28;20078;-71
2022/07/04 03:11:46;;;;;;;7.65;5.43;;;13.40;99.90;;;;;;4961293;28;20557;-71
2022/07/04 03:14:12;;;;;;;7.50;5.32;;;13.50;99.90;;;;;;4960991;28;20467;-71
2022/07/04 03:16:37;;;;;;;6.47;5.28;;;13.40;99.90;;;;;;4976334;28;20038;-71
2022/07/04 03:19:03;;;;;;;5.72;4.70;;;13.40;99.90;;;;;;4976929;28;20526;-71
2022/07/04 03:21:29;;;;;;;5.20;4.68;;;13.40;99.90;;;;;;4976832;28;20084;-71
2022/07/04 03:23:57;;;;;;;6.80;5.07;;;13.40;99.90;;;;;;4977096;28;20046;-71
2022/07/04 03:26:31;;;;;;;5.72;4.65;;;13.40;99.90;;;;;;4976752;28;20038;-71
2022/07/04 03:28:58;;;;;;;6.65;4.88;;;13.40;99.90;;;;;;4960950;28;20042;-71
2022/07/04 03:31:25;;;;;;;8.32;5.38;;;13.30;99.90;;;;;;4977108;28;20042;-71
2022/07/04 03:33:50;;;;;;;8.95;5.13;;;13.30;99.90;;;;;;4977183;28;20038;-71
2022/07/04 03:36:20;;;;;;;6.25;4.88;;;13.30;99.90;;;;;;4976548;28;20565;-71
2022/07/04 03:38:46;;;;;;;6.28;4.22;;;13.30;99.90;;;;;;4977819;28;20065;-71
2022/07/04 03:41:11;;;;;;;5.53;4.68;;;13.40;99.90;;;;;;4960609;28;20438;-71
2022/07/04 03:43:37;;;;;;;7.03;4.63;;;13.40;99.90;;;;;;4992776;28;20121;-71
2022/07/04 03:46:03;;;;;;;5.18;4.60;;;13.40;99.90;;;;;;4976678;28;20069;-71
2022/07/04 03:48:29;;;;;;;5.70;4.40;;;13.40;99.90;;;;;;4976712;28;20038;-71
2022/07/04 03:50:55;;;;;;;6.65;5.10;;;13.30;99.90;;;;;;4960514;28;20530;-71
2022/07/04 03:53:20;;;;;;;7.72;4.70;;;13.40;99.90;;;;;;4976436;28;20046;-71
2022/07/04 03:55:46;;;;;;;7.00;5.05;;;13.40;99.90;;;;;;4976718;28;20039;-71
2022/07/04 03:58:12;;;;;;;5.47;4.60;;;13.40;99.90;;;;;;4976479;28;20038;-71
2022/07/04 04:00:37;;;;;;;5.97;4.85;;;13.40;99.90;;;;;;4976714;28;20041;-71
2022/07/04 04:05:25;;;;;;;5.57;4.63;;;13.40;99.90;;;;;;4976507;28;20058;-71
2022/07/04 04:05:48;;;;;;;5.25;3.90;;;13.40;99.90;;;;;;4976397;28;20121;-71
2022/07/04 04:08:14;;;;;;;4.90;3.65;;;13.40;99.90;;;;;;4976552;28;20125;-71
2022/07/04 04:10:40;;;;;;;5.65;4.00;;;13.40;99.90;;;;;;4976475;28;20089;-71
2022/07/04 04:13:05;;;;;;;5.65;4.03;;;13.40;99.90;;;;;;4976190;28;20414;-71
2022/07/04 04:15:31;;;;;;;7.78;3.97;;;13.50;99.90;;;;;;4976174;28;20078;-71
2022/07/04 04:17:56;;;;;;;7.28;4.90;;;13.50;99.90;;;;;;4993598;28;20042;-71
2022/07/04 04:20:22;;;;;;;8.32;5.25;;;13.50;99.90;;;;;;4976214;28;20042;-71
2022/07/04 04:22:49;;;;;;;7.40;4.93;;;13.60;99.90;;;;;;4976121;28;20056;-71
2022/07/04 04:25:16;;;;;;;10.88;6.35;;;13.60;99.90;;;;;;4976188;28;20057;-71
2022/07/04 04:27:41;;;;;;;7.30;5.90;;;13.60;99.90;;;;;;4978752;28;20192;-71
2022/07/04 04:30:07;;;;;;;12.27;6.40;;;13.70;99.90;;;;;;4980154;28;20127;-71
2022/07/04 04:32:33;;;;;;;10.73;6.70;;;13.80;99.90;;;;;;4996402;28;20046;-71
2022/07/04 04:34:59;;;;;;;11.98;5.75;;;13.80;99.90;;;;;;4979908;28;20042;-71
2022/07/04 04:37:24;;;;;;;11.10;7.00;;;13.90;99.90;;;;;;4979897;28;20046;-71
2022/07/04 04:39:50;;;;;;;13.00;6.70;;;13.90;99.90;;;;;;4979888;28;20039;-71
2022/07/04 04:42:15;;;;;;;13.90;6.40;;;14.00;99.90;;;;;;4979817;28;20052;-71
2022/07/04 04:44:41;;;;;;;11.25;6.68;;;14.00;99.90;;;;;;4979735;28;20038;-71
2022/07/04 04:47:06;;;;;;;8.95;6.07;;;14.10;99.90;;;;;;4979942;28;20038;-71
2022/07/04 04:49:32;;;;;;;10.57;6.82;;;14.10;99.90;;;;;;4979913;28;20031;-71
2022/07/04 04:51:58;;;;;;;10.77;6.68;;;14.20;99.90;;;;;;4997082;28;20046;-71
2022/07/04 04:54:23;;;;;;;10.15;5.95;;;14.20;99.90;;;;;;4979563;28;20038;-71
2022/07/04 04:56:49;;;;;;;13.75;6.82;;;14.30;99.90;;;;;;4979543;28;20121;-71
2022/07/04 04:59:14;;;;;;;10.10;6.53;;;14.30;99.90;;;;;;4979751;28;20491;-71
2022/07/04 05:01:40;;;;;;;13.07;6.75;;;14.40;99.90;;;;;;4979385;28;20042;-71
2022/07/04 05:04:05;;;;;;;13.27;7.18;;;14.40;99.90;;;;;;4979857;28;20038;-71
2022/07/04 05:06:31;;;;;;;17.77;8.10;;;14.50;99.90;;;;;;4979862;28;20507;-71
2022/07/04 05:08:56;;;;;;;14.10;7.95;;;14.50;99.90;;;;;;4979426;28;20545;-71
2022/07/04 05:11:22;;;;;;;17.83;7.80;;;14.50;99.90;;;;;;4979567;28;20042;-71
2022/07/04 05:13:48;;;;;;;12.07;8.93;;;14.60;99.90;;;;;;4979489;28;20054;-71
2022/07/04 05:16:13;;;;;;;14.10;8.52;;;14.60;99.90;;;;;;4979135;28;20077;-71
2022/07/04 05:18:39;;;;;;;12.32;8.63;;;14.70;99.90;;;;;;4979153;28;20074;-71
2022/07/04 05:21:04;;;;;;;12.93;9.05;;;14.70;99.90;;;;;;4979356;28;20081;-71
2022/07/04 05:23:30;;;;;;;13.48;8.40;;;14.80;99.90;;;;;;4979138;28;20511;-72
2022/07/04 05:25:56;;;;;;;16.90;9.15;;;14.80;99.90;;;;;;4979176;28;20114;-72
2022/07/04 05:28:21;;;;;;;11.60;8.18;;;14.90;99.90;;;;;;4979075;28;20049;-72
2022/07/04 05:30:47;;;;;;;11.70;8.18;;;15.00;99.90;;;;;;4979301;28;20050;-72
2022/07/04 05:33:12;;;;;;;13.07;7.95;;;15.00;99.90;;;;;;4978962;28;20121;-70
2022/07/04 05:35:38;;;;;;;11.38;7.28;;;15.10;99.90;;;;;;4979582;28;20158;-71
2022/07/04 05:38:04;;;;;;;17.55;7.32;;;15.10;99.90;;;;;;4978469;28;20077;-71
2022/07/04 05:40:30;;;;;;;13.15;8.00;;;15.10;99.90;;;;;;4979046;28;20042;-71
2022/07/04 05:42:56;;;;;;;11.50;6.90;;;15.20;99.90;;;;;;4979069;28;20042;-71
2022/07/04 05:45:22;;;;;;;13.07;6.82;;;15.20;99.90;;;;;;4979117;28;20046;-71
2022/07/04 05:47:47;;;;;;;13.20;6.40;;;15.30;99.90;;;;;;4978714;28;20043;-72
2022/07/04 05:50:13;;;;;;;11.85;6.03;;;15.40;99.90;;;;;;4979002;28;20042;-72
2022/07/04 05:52:38;;;;;;;11.88;6.32;;;15.40;99.90;;;;;;4978538;28;20491;-72
2022/07/04 05:55:06;;;;;;;11.00;6.38;;;15.50;99.90;;;;;;4978586;28;20074;-72
2022/07/04 05:57:31;;;;;;;8.98;5.85;;;15.50;99.90;;;;;;4979064;28;20042;-72
2022/07/04 05:59:57;;;;;;;8.32;5.63;;;15.50;99.90;;;;;;4978783;28;20149;-72
2022/07/04 06:02:23;;;;;;;7.53;5.35;;;15.60;99.90;;;;;;4978411;28;20034;-72
2022/07/04 06:04:48;;;;;;;7.78;5.22;;;15.70;99.90;;;;;;4978491;28;20117;-71
2022/07/04 06:07:14;;;;;;;10.00;5.35;;;15.80;99.90;;;;;;4978429;28;20097;-71
2022/07/04 06:09:39;;;;;;;9.95;5.68;;;15.90;99.90;;;;;;4978347;28;20038;-71
2022/07/04 06:12:05;;;;;;;9.55;5.45;;;16.00;99.90;;;;;;4978425;28;20046;-71
2022/07/04 06:14:31;;;;;;;10.88;5.30;;;16.00;99.90;;;;;;4994445;28;20038;-71
2022/07/04 06:16:56;;;;;;;11.32;5.18;;;16.10;99.90;;;;;;4978408;28;20045;-71
2022/07/04 06:19:22;;;;;;;8.68;5.18;;;16.20;99.90;;;;;;4978404;28;20049;-71
2022/07/04 06:21:48;;;;;;;11.68;5.15;;;16.20;99.90;;;;;;4962066;28;20046;-71
2022/07/04 06:24:14;;;;;;;11.90;5.35;;;16.30;99.90;;;;;;4978500;28;20034;-71
2022/07/04 06:26:40;;;;;;;11.70;5.18;;;16.40;99.90;;;;;;4978112;28;20042;-71
2022/07/04 06:29:05;;;;;;;9.88;4.82;;;16.50;99.90;;;;;;4994444;28;20088;-71
2022/07/04 06:31:31;;;;;;;9.50;5.15;;;16.50;99.90;;;;;;4978045;28;20051;-71
2022/07/04 06:36:41;;;;;;;10.85;5.28;;;16.70;99.90;;;;;;4977676;28;20058;-72
2022/07/04 06:39:07;;;;;;;9.57;4.68;;;16.70;99.90;;;;;;4977830;28;20035;-72
2022/07/04 06:41:32;;;;;;;11.07;5.25;;;16.80;99.90;;;;;;4977967;28;20042;-72
2022/07/04 06:43:58;;;;;;;9.27;4.78;;;16.90;99.90;;;;;;4977718;28;20176;-72
2022/07/04 06:46:24;;;;;;;11.90;5.05;;;16.90;99.90;;;;;;4977723;28;20049;-72
2022/07/04 06:48:50;;;;;;;10.73;5.32;;;17.00;99.90;;;;;;4977612;28;20053;-72
2022/07/04 06:51:16;;;;;;;10.80;5.75;;;17.10;99.90;;;;;;4976671;28;20046;-72
2022/07/04 06:53:42;;;;;;;10.65;5.63;;;17.20;99.90;;;;;;4995160;28;20030;-72
2022/07/04 06:56:07;;;;;;;8.13;5.15;;;17.20;99.90;;;;;;4993645;28;20050;-72
2022/07/04 06:58:33;;;;;;;18.50;5.63;;;17.30;99.90;;;;;;4961550;28;20376;-72
2022/07/04 07:00:59;;;;;;;11.23;5.40;;;17.40;99.90;;;;;;4977649;28;20043;-72
2022/07/04 07:03:24;;;;;;;13.73;5.63;;;17.50;99.90;;;;;;4977298;28;20411;-72
2022/07/04 07:05:50;;;;;;;12.18;4.88;;;17.60;99.90;;;;;;4977477;28;20042;-72
2022/07/04 07:08:16;;;;;;;10.55;5.30;;;17.70;99.90;;;;;;4977504;28;20050;-72
2022/07/04 07:10:48;;;;;;;12.10;5.05;;;17.80;99.90;;;;;;5091519;28;20382;-71
2022/07/04 07:13:14;;;;;;;13.32;4.95;;;18.00;99.90;;;;;;5089594;28;20048;-70
2022/07/04 07:15:39;;;;;;;12.32;4.97;;;18.10;99.90;;;;;;5089277;28;20497;-70
2022/07/04 07:18:05;;;;;;;10.90;4.13;;;18.20;99.90;;;;;;5089617;28;20097;-70
2022/07/04 07:20:31;;;;;;;10.30;4.00;;;18.30;99.90;;;;;;5089227;28;20511;-70
2022/07/04 07:22:57;;;;;;;12.85;5.15;;;18.40;99.90;;;;;;5090038;28;20044;-71
2022/07/04 07:25:22;;;;;;;15.55;5.40;;;18.50;99.90;;;;;;5072395;28;20043;-69
2022/07/04 07:27:48;;;;;;;11.60;4.80;;;18.50;99.90;;;;;;5089218;28;20090;-69
2022/07/04 07:30:14;;;;;;;12.93;5.25;;;18.70;99.90;;;;;;5072381;28;20044;-70
2022/07/04 07:32:39;;;;;;;11.18;6.07;;;18.80;99.90;;;;;;5089342;28;20097;-70
2022/07/04 07:35:05;;;;;;;12.63;5.03;;;18.80;99.90;;;;;;5072376;28;20073;-70
2022/07/04 07:37:31;;;;;;;10.82;4.47;;;18.80;99.90;;;;;;5088962;28;20048;-70
2022/07/04 07:39:57;;;;;;;12.98;3.97;;;18.80;99.90;;;;;;5088891;28;20043;-70
2022/07/04 07:42:25;;;;;;;10.60;4.07;;;18.70;99.90;;;;;;5071978;28;20137;-70
2022/07/04 07:44:51;;;;;;;12.15;4.70;;;18.90;99.90;;;;;;5088947;28;20135;-70
2022/07/04 07:47:17;;;;;;;10.75;4.18;;;19.00;99.90;;;;;;5088823;28;20123;-70
2022/07/04 07:49:44;;;;;;;10.50;3.40;;;19.00;99.90;;;;;;5071749;28;20044;-70
2022/07/04 07:52:10;;;;;;;12.50;4.10;;;19.00;99.90;;;;;;5088849;28;20042;-70
2022/07/04 07:54:36;;;;;;;14.45;3.65;;;19.00;99.90;;;;;;5088802;28;20488;-70
2022/07/04 07:57:02;;;;;;;9.70;3.78;;;19.00;99.90;;;;;;5071921;28;20044;-70
2022/07/04 07:59:27;;;;;;;9.00;2.95;;;18.90;99.90;;;;;;5088525;28;20540;-69
2022/07/04 08:01:53;;;;;;;11.38;3.88;;;19.00;99.90;;;;;;5071861;28;20048;-71
2022/07/04 08:07:08;;;;;;;9.45;2.90;;;19.30;99.90;;;;;;5088544;28;20416;-71
2022/07/04 08:09:34;;;;;;;14.10;3.47;;;19.50;99.90;;;;;;5088548;28;20048;-71
2022/07/04 08:12:01;;;;;;;8.82;2.35;;;19.60;99.90;;;;;;5088304;28;20037;-71
2022/07/04 08:14:28;;;;;;;10.73;2.45;;;19.70;99.90;;;;;;5088263;28;20123;-71
2022/07/04 08:16:54;;;;;;;8.63;2.28;;;19.90;99.90;;;;;;5088169;28;20051;-71
2022/07/04 08:19:20;;;;;;;7.85;2.20;;;20.10;99.90;;;;;;5088116;28;20036;-71
2022/07/04 08:21:48;;;;;;;3.90;1.50;;;20.30;99.90;;;;;;5060125;28;20123;-70
2022/07/04 08:24:15;;;;;;;6.88;1.60;;;20.60;99.90;;;;;;5074567;28;20040;-70
2022/07/04 08:26:41;;;;;;;5.30;1.55;;;20.60;99.90;;;;;;5057845;28;20041;-70
2022/07/04 08:29:19;;;;;;;4.90;1.73;;;20.50;99.90;;;;;;5074574;28;20047;-70
2022/07/04 08:31:45;;;;;;;9.85;2.13;;;20.50;99.90;;;;;;5074359;28;20072;-70
2022/07/04 08:34:11;;;;;;;5.97;1.90;;;20.70;99.90;;;;;;5074679;28;20103;-70
2022/07/04 08:36:37;;;;;;;4.97;2.00;;;20.80;99.90;;;;;;5074700;28;20536;-71
2022/07/04 08:39:03;;;;;;;7.03;2.05;;;21.00;99.90;;;;;;5074530;28;20044;-71
2022/07/04 08:41:36;;;;;;;8.18;2.10;;;21.00;99.90;;;;;;5074585;28;20040;-71
2022/07/04 08:44:02;;;;;;;7.30;2.38;;;20.90;99.90;;;;;;5057770;28;20127;-71
2022/07/04 08:46:30;;;;;;;4.25;1.83;;;20.80;99.90;;;;;;5074169;28;20042;-70
2022/07/04 08:49:00;;;;;;;7.18;1.95;;;20.80;99.90;;;;;;5073977;28;20382;-71
2022/07/04 08:51:39;;;;;;;5.80;1.52;;;20.80;99.90;;;;;;5074055;28;20072;-71
2022/07/04 08:58:25;;;;;;;7.15;1.55;;;21.00;99.90;;;;;;5073982;28;20448;-71
2022/07/04 08:59:37;;;;;;;6.18;1.83;;;21.10;99.90;;;;;;5074146;28;20040;-70
2022/07/04 09:02:04;;;;;;;8.52;2.15;;;21.00;99.90;;;;;;5074133;28;20024;-70
2022/07/04 09:04:30;;;;;;;5.70;1.70;;;20.80;99.90;;;;;;5073872;28;20032;-70
2022/07/04 09:06:57;;;;;;;5.00;1.40;;;20.60;99.90;;;;;;5073853;28;20051;-69
2022/07/04 09:09:24;;;;;;;8.45;1.90;;;20.50;99.90;;;;;;5073518;28;20072;-70
2022/07/04 09:11:50;;;;;;;9.32;1.73;;;20.30;99.90;;;;;;5073615;28;20040;-70
2022/07/04 09:14:15;;;;;;;6.10;1.27;;;20.10;99.90;;;;;;5073630;28;20052;-70
2022/07/04 09:16:41;;;;;;;5.47;1.17;;;19.90;99.90;;;;;;5073790;28;20036;-70
2022/07/04 09:19:19;;;;;;;5.15;1.23;;;19.70;99.90;;;;;;5057180;28;20408;-70
2022/07/04 09:21:46;;;;;;;6.03;1.10;;;19.60;99.90;;;;;;5073727;28;20063;-70
2022/07/04 09:24:11;;;;;;;4.18;1.10;;;19.50;99.90;;;;;;5073725;28;20040;-70
2022/07/04 09:26:43;;;;;;;5.65;1.38;;;19.70;99.90;;;;;;5073387;28;20393;-70
2022/07/04 09:29:09;;;;;;;3.10;1.00;;;20.00;99.90;;;;;;5073331;28;20481;-70
2022/07/04 09:31:36;;;;;;;4.18;1.10;;;20.30;99.90;;;;;;5072949;28;20046;-70
2022/07/04 09:34:04;;;;;;;4.63;0.90;;;20.40;99.90;;;;;;5072431;28;20039;-69
2022/07/04 09:36:36;;;;;;;5.82;0.88;;;20.80;99.90;;;;;;5073161;28;20127;-70
2022/07/04 09:39:12;;;;;;;4.10;1.02;;;20.90;99.90;;;;;;5073215;28;20492;-70
2022/07/04 09:41:57;;;;;;;2.83;0.75;;;21.30;99.90;;;;;;5073951;28;20048;-70
2022/07/04 09:44:26;;;;;;;2.53;0.63;;;21.40;99.90;;;;;;5073309;28;20044;-70
2022/07/04 09:46:52;;;;;;;3.35;0.75;;;21.60;99.90;;;;;;5072930;28;20405;-69
2022/07/04 09:49:19;;;;;;;4.93;0.90;;;21.80;99.90;;;;;;5072828;28;20494;-71
2022/07/04 09:51:47;;;;;;;2.80;0.65;;;21.70;99.90;;;;;;5072830;28;20047;-71
2022/07/04 09:54:31;;;;;;;1.83;0.70;;;21.80;99.90;;;;;;5072834;28;20115;-70
2022/07/04 09:57:02;;;;;;;3.15;0.93;;;22.10;99.90;;;;;;5073008;28;20072;-70
2022/07/04 09:59:29;;;;;;;1.70;0.47;;;22.40;99.90;;;;;;5072790;28;20086;-70
2022/07/04 10:02:11;;;;;;;2.38;0.70;;;22.50;99.40;;;;;;5072859;28;20049;-71
2022/07/04 10:04:51;;;;;;;3.38;0.88;;;22.40;97.90;;;;;;5055953;28;20040;-71
2022/07/04 10:07:35;;;;;;;2.47;0.60;;;22.40;96.10;;;;;;5072505;28;20447;-71
2022/07/04 10:10:24;;;;;;;2.42;0.73;;;22.60;94.80;;;;;;5072598;28;20140;-71
2022/07/04 10:12:50;;;;;;;2.92;0.70;;;22.80;95.30;;;;;;5072452;28;20044;-70
2022/07/04 10:15:17;;;;;;;3.40;0.80;;;23.00;96.30;;;;;;5073121;28;20090;-71
2022/07/04 10:17:43;;;;;;;3.22;0.70;;;23.00;92.70;;;;;;5072405;28;20044;-71
2022/07/04 10:20:11;;;;;;;2.13;0.50;;;23.10;92.80;;;;;;5072703;28;20114;-71
2022/07/04 10:22:38;;;;;;;3.85;0.80;;;23.20;93.30;;;;;;5055676;28;20048;-71
2022/07/04 10:25:05;;;;;;;3.80;0.65;;;23.20;94.80;;;;;;5072564;28;20072;-71
2022/07/04 10:27:31;;;;;;;2.65;0.60;;;23.20;94.80;;;;;;5072216;28;20067;-71
2022/07/04 10:29:58;;;;;;;3.22;0.70;;;23.10;91.20;;;;;;5072424;28;20040;-71
2022/07/04 10:32:26;;;;;;;4.90;0.80;;;22.90;93.80;;;;;;5072353;28;20045;-71
2022/07/04 10:34:51;;;;;;;2.67;0.95;;;22.60;95.40;;;;;;5072153;28;20048;-71
2022/07/04 10:37:17;;;;;;;7.07;1.10;;;22.30;96.30;;;;;;5072374;28;20055;-71
2022/07/04 10:39:43;;;;;;;1.75;0.60;;;22.10;96.50;;;;;;5072065;28;20037;-71
2022/07/04 10:42:09;;;;;;;2.75;0.80;;;22.00;99.90;;;;;;5055359;28;20108;-70
2022/07/04 10:44:37;;;;;;;3.88;1.15;;;21.80;99.90;;;;;;5055122;28;20127;-71
2022/07/04 10:47:04;;;;;;;4.15;1.27;;;21.70;99.90;;;;;;5072006;28;20119;-71
2022/07/04 10:49:31;;;;;;;5.40;0.95;;;21.80;99.90;;;;;;5071911;28;20044;-71
2022/07/04 10:52:13;;;;;;;4.22;1.05;;;21.90;99.90;;;;;;5071856;28;20097;-71
2022/07/04 10:54:41;;;;;;;6.20;1.20;;;22.20;99.90;;;;;;5071994;28;20064;-71
2022/07/04 10:57:24;;;;;;;3.33;1.00;;;22.50;99.90;;;;;;5072025;28;20283;-71
2022/07/04 10:59:59;;;;;;;2.15;0.80;;;22.80;99.90;;;;;;5071898;28;20046;-71
2022/07/04 11:02:29;;;;;;;2.55;0.80;;;23.10;99.90;;;;;;5055052;28;20420;-71
2022/07/04 11:05:07;;;;;;;2.65;1.00;;;23.30;98.60;;;;;;5071810;28;20493;-71
2022/07/04 11:07:36;;;;;;;4.20;1.08;;;23.40;97.30;;;;;;5071785;28;20082;-70
2022/07/04 11:10:16;;;;;;;3.10;1.00;;;23.50;97.10;;;;;;5071630;28;20048;-71
2022/07/04 11:13:00;;;;;;;5.22;1.10;;;23.50;93.80;;;;;;5071969;28;20049;-71
2022/07/04 11:15:31;;;;;;;3.50;0.93;;;23.70;92.20;;;;;;5071990;28;20098;-71
2022/07/04 11:17:59;;;;;;;2.75;0.80;;;23.80;91.90;;;;;;5071741;28;20037;-71
2022/07/04 11:20:27;;;;;;;4.40;1.00;;;23.90;90.80;;;;;;5071705;28;20044;-71
2022/07/04 11:23:06;;;;;;;1.80;0.75;;;23.80;89.30;;;;;;5071903;28;20447;-72
2022/07/04 11:25:32;;;;;;;4.05;0.98;;;23.80;90.70;;;;;;5071636;28;20044;-72
2022/07/04 11:28:16;;;;;;;2.55;0.75;;;23.50;90.00;;;;;;5071565;28;20409;-72
2022/07/04 11:30:48;;;;;;;2.15;0.80;;;23.60;91.30;;;;;;5071542;28;20040;-72
2022/07/04 11:33:19;;;;;;;1.48;0.75;;;23.80;91.40;;;;;;5071553;28;20075;-72
2022/07/04 11:36:04;;;;;;;1.80;0.63;;;24.00;87.50;;;;;;5071520;28;20037;-71
2022/07/04 11:38:49;;;;;;;3.25;1.02;;;24.40;85.50;;;;;;5071736;28;20493;-71
2022/07/04 11:46:49;;;;;;;5.20;0.88;;;25.00;72.40;;;;;;5071447;28;20040;-72
2022/07/04 11:49:14;;;;;;;2.08;0.55;;;24.50;74.40;;;;;;5054582;28;20040;-72
2022/07/04 11:51:47;;;;;;;4.90;0.75;;;24.20;74.10;;;;;;5071295;28;20036;-72
2022/07/04 11:54:13;;;;;;;4.10;0.82;;;24.30;81.00;;;;;;5071307;28;20120;-72
2022/07/04 11:56:39;;;;;;;4.25;1.25;;;24.60;78.40;;;;;;5073407;28;20128;-73
2022/07/04 11:59:15;;;;;;;2.83;0.80;;;24.80;75.40;;;;;;5075014;28;20040;-73
2022/07/04 12:01:44;;;;;;;3.65;0.70;;;24.90;69.50;;;;;;5074998;28;20492;-74
2022/07/04 12:04:14;;;;;;;3.28;0.63;;;25.10;72.30;;;;;;5074959;28;20040;-74
2022/07/04 12:06:40;;;;;;;4.45;0.85;;;25.00;72.00;;;;;;5074886;28;20076;-73
2022/07/04 12:09:06;;;;;;;3.60;0.80;;;24.80;67.70;;;;;;5074920;28;20083;-74
2022/07/04 12:11:54;;;;;;;2.67;0.70;;;24.50;68.20;;;;;;5058105;28;20032;-74
2022/07/04 12:14:20;;;;;;;5.88;1.20;;;24.20;67.30;;;;;;5074760;28;20036;-74
2022/07/04 12:16:47;;;;;;;2.33;0.80;;;23.90;69.20;;;;;;5074731;28;20110;-73
2022/07/04 12:19:13;;;;;;;1.98;0.80;;;23.50;69.30;;;;;;5074665;28;20451;-73
2022/07/04 12:21:39;;;;;;;2.63;0.50;;;23.30;72.50;;;;;;5074578;28;20044;-73
2022/07/04 12:24:05;;;;;;;4.30;0.70;;;23.40;71.90;;;;;;5074857;28;20370;-73
2022/07/04 12:26:44;;;;;;;3.65;0.70;;;23.60;71.50;;;;;;5074562;28;20524;-73
2022/07/04 12:29:09;;;;;;;3.03;0.70;;;23.90;68.20;;;;;;5074714;28;20102;-74
2022/07/04 12:31:42;;;;;;;2.33;0.63;;;23.70;68.70;;;;;;5074401;28;20409;-74
2022/07/04 12:34:17;;;;;;;3.53;0.70;;;23.50;69.40;;;;;;5074697;28;20047;-74
2022/07/04 12:36:54;;;;;;;4.13;0.73;;;23.50;71.10;;;;;;5074255;28;20037;-74
2022/07/04 12:39:30;;;;;;;3.17;0.80;;;23.50;69.70;;;;;;5057549;28;20036;-74
2022/07/04 12:42:09;;;;;;;3.38;0.90;;;23.70;73.10;;;;;;5074356;28;20052;-74
2022/07/04 12:44:40;;;;;;;6.13;0.60;;;24.00;67.50;;;;;;5057564;28;20036;-73
2022/07/04 12:47:06;;;;;;;3.85;0.70;;;23.80;67.70;;;;;;5074174;28;20485;-73
2022/07/04 12:49:33;;;;;;;2.70;0.50;;;23.70;68.90;;;;;;5074214;28;20040;-73
2022/07/04 12:52:07;;;;;;;2.28;0.50;;;23.70;69.30;;;;;;5074067;28;20040;-73
2022/07/04 12:54:33;;;;;;;2.35;0.47;;;24.00;67.20;;;;;;5074102;28;20496;-73
2022/07/04 12:57:11;;;;;;;5.97;0.73;;;24.20;67.80;;;;;;5074007;28;20036;-73
2022/07/04 12:59:37;;;;;;;3.15;0.55;;;24.50;66.00;;;;;;5074021;28;20094;-73
2022/07/04 13:02:03;;;;;;;3.53;0.60;;;24.60;67.20;;;;;;5073850;28;20044;-73
2022/07/04 13:04:31;;;;;;;3.33;0.77;;;24.60;65.90;;;;;;5074148;28;20501;-74